Time;durP1;ratioP1;P1;durP2;ratioP2;P2;SDS_P1;SDS_P2;PMS_P1;PMS_P2;Temp;Humidity;BMP_temperature;BMP_pressure;BME280_temperature;BME280_humidity;BME280_pressure;Samples;Min_cycle;Max_cycle;Signal;HPM_P1;HPM_P2
2023/01/17 00:01:52;;;;;;;4.22;0.50;;;5.00;85.00;;;;;;5084475;27;20043;-80
2023/01/17 00:09:52;;;;;;;3.63;0.60;;;4.90;84.90;;;;;;5120922;27;20066;-79
2023/01/17 00:12:20;;;;;;;3.15;0.20;;;4.90;84.90;;;;;;5118161;27;20043;-80
2023/01/17 00:14:46;;;;;;;1.70;0.30;;;4.90;84.90;;;;;;5134973;27;20096;-80
2023/01/17 00:17:12;;;;;;;0.95;0.10;;;4.90;84.70;;;;;;5097530;28;20047;-80
2023/01/17 01:34:33;;;;;;;5.35;1.73;;;4.10;82.60;;;;;;5118965;27;20134;-79
2023/01/17 01:36:58;;;;;;;7.05;2.85;;;4.10;82.60;;;;;;5096086;28;20072;-79
2023/01/17 01:39:24;;;;;;;10.90;3.17;;;4.10;82.70;;;;;;5101937;28;20062;-79
2023/01/17 01:41:50;;;;;;;9.90;2.63;;;4.10;82.80;;;;;;5096215;28;20093;-79
2023/01/17 01:44:42;;;;;;;10.13;3.35;;;4.10;82.70;;;;;;5121714;27;20035;-79
2023/01/17 01:47:11;;;;;;;10.07;3.03;;;4.10;82.70;;;;;;5116248;27;20066;-79
2023/01/17 01:49:37;;;;;;;6.05;2.30;;;4.10;82.80;;;;;;5116190;27;20047;-79
2023/01/17 01:52:05;;;;;;;3.47;1.15;;;4.30;82.90;;;;;;5099122;27;20039;-79
2023/01/17 01:54:46;;;;;;;3.80;0.80;;;4.20;82.90;;;;;;5115971;28;20077;-79
2023/01/17 01:57:15;;;;;;;4.75;1.30;;;4.00;82.90;;;;;;5115279;27;20027;-79
2023/01/17 01:59:45;;;;;;;3.85;1.20;;;4.00;82.90;;;;;;5115692;27;20428;-79
2023/01/17 02:02:11;;;;;;;5.38;2.00;;;4.00;82.90;;;;;;5133113;27;20061;-79
2023/01/17 02:04:37;;;;;;;5.78;1.67;;;4.00;82.90;;;;;;5098377;27;20039;-79
2023/01/17 02:07:09;;;;;;;7.72;2.38;;;4.00;83.00;;;;;;5082135;27;20057;-79
2023/01/17 02:09:35;;;;;;;8.65;2.10;;;4.10;83.00;;;;;;5115769;27;20043;-78
2023/01/17 02:12:03;;;;;;;7.20;2.45;;;4.00;83.00;;;;;;5115757;27;20076;-79
2023/01/17 02:14:29;;;;;;;13.40;4.93;;;4.20;83.20;;;;;;5115643;27;20067;-79
2023/01/17 02:17:16;;;;;;;9.18;2.35;;;4.10;83.10;;;;;;5115342;27;20113;-79
2023/01/17 02:19:41;;;;;;;9.02;2.28;;;4.10;83.20;;;;;;5115868;27;20396;-78
2023/01/17 02:22:34;;;;;;;8.90;2.90;;;4.10;83.00;;;;;;5115973;27;20038;-79
2023/01/17 02:25:23;;;;;;;13.07;5.25;;;4.10;83.10;;;;;;5115473;27;20043;-79
2023/01/17 02:28:19;;;;;;;11.75;5.20;;;4.20;83.20;;;;;;5095219;28;20047;-79
2023/01/17 02:30:49;;;;;;;13.35;5.85;;;4.20;83.20;;;;;;5114920;28;20038;-79
2023/01/17 02:33:20;;;;;;;8.88;3.20;;;4.30;83.20;;;;;;5132889;28;20039;-78
2023/01/17 02:35:51;;;;;;;5.68;1.70;;;4.20;83.00;;;;;;5115200;28;20086;-79
2023/01/17 02:38:30;;;;;;;4.20;1.17;;;4.20;83.00;;;;;;5132563;28;20044;-78
2023/01/17 02:41:06;;;;;;;4.22;0.77;;;4.20;82.80;;;;;;5115599;28;20103;-79
2023/01/17 02:43:33;;;;;;;3.55;0.50;;;4.20;82.70;;;;;;5126920;28;20035;-78
2023/01/17 02:45:59;;;;;;;6.47;0.70;;;4.20;82.60;;;;;;5120117;27;20058;-78
2023/01/17 02:48:28;;;;;;;4.05;0.50;;;4.20;82.40;;;;;;5110229;28;20035;-84
2023/01/17 02:51:06;;;;;;;3.45;0.60;;;4.20;82.40;;;;;;5112047;28;20495;-85
2023/01/17 02:53:59;;;;;;;7.45;0.75;;;4.20;82.40;;;;;;5101820;28;20068;-84
2023/01/17 02:56:34;;;;;;;3.85;0.65;;;4.20;82.30;;;;;;5115158;28;20042;-84
2023/01/17 02:59:17;;;;;;;6.28;0.80;;;4.20;82.30;;;;;;5115435;28;20043;-84
2023/01/17 03:02:01;;;;;;;3.72;0.90;;;4.20;82.30;;;;;;5132727;28;20042;-84
2023/01/17 03:04:39;;;;;;;4.82;0.75;;;4.10;82.20;;;;;;5115190;28;20043;-84
2023/01/17 03:07:15;;;;;;;5.78;1.20;;;4.20;82.40;;;;;;5115550;28;20114;-78
2023/01/17 03:09:44;;;;;;;4.32;0.55;;;4.10;82.30;;;;;;5101422;28;20474;-78
2023/01/17 03:12:11;;;;;;;7.65;1.30;;;4.10;82.40;;;;;;5098843;28;20082;-85
2023/01/17 03:14:37;;;;;;;4.28;0.80;;;4.10;82.40;;;;;;5115290;28;20077;-84
2023/01/17 03:17:03;;;;;;;2.97;0.55;;;4.10;82.40;;;;;;5115337;28;20181;-84
2023/01/17 03:19:30;;;;;;;6.32;1.15;;;4.20;82.60;;;;;;5115383;28;20031;-84
2023/01/17 03:21:56;;;;;;;2.75;0.60;;;4.60;82.80;;;;;;5099013;28;20483;-84
2023/01/17 03:24:22;;;;;;;4.47;0.52;;;4.20;82.60;;;;;;5115193;28;20122;-84
2023/01/17 03:26:47;;;;;;;3.28;0.70;;;4.20;82.60;;;;;;5132322;27;20177;-84
2023/01/17 03:29:15;;;;;;;4.68;0.68;;;4.20;82.50;;;;;;5118397;27;20130;-84
2023/01/17 03:31:41;;;;;;;5.13;0.55;;;4.20;82.40;;;;;;5101641;27;20039;-77
2023/01/17 03:34:07;;;;;;;5.72;1.02;;;4.60;82.50;;;;;;5102004;27;20042;-84
2023/01/17 03:36:32;;;;;;;5.35;0.70;;;4.20;82.20;;;;;;5119025;27;20031;-85
2023/01/17 03:38:58;;;;;;;2.28;0.52;;;4.20;82.20;;;;;;5119023;27;20482;-85
2023/01/17 03:41:24;;;;;;;3.30;0.52;;;4.20;82.20;;;;;;5136084;27;20058;-85
2023/01/17 03:43:49;;;;;;;2.78;0.52;;;4.20;82.30;;;;;;5119201;27;20542;-85
2023/01/17 03:46:23;;;;;;;3.13;0.60;;;4.20;82.30;;;;;;5101716;27;20498;-85
2023/01/17 03:48:50;;;;;;;7.18;1.02;;;4.30;82.50;;;;;;5101694;27;20047;-85
2023/01/17 03:51:15;;;;;;;3.42;0.75;;;4.30;82.30;;;;;;5136031;27;20043;-85
2023/01/17 03:53:42;;;;;;;3.05;0.50;;;4.30;82.20;;;;;;5135681;27;20039;-85
2023/01/17 03:56:08;;;;;;;6.35;0.85;;;4.50;82.20;;;;;;5118417;27;20047;-85
2023/01/17 03:58:34;;;;;;;5.45;0.73;;;4.30;82.00;;;;;;5118783;27;20031;-85
2023/01/17 04:00:59;;;;;;;5.85;0.65;;;4.30;81.80;;;;;;5135630;27;20528;-85
2023/01/17 04:03:25;;;;;;;3.47;0.70;;;4.30;81.80;;;;;;5118283;27;20371;-84
2023/01/17 04:05:51;;;;;;;3.80;0.60;;;4.30;81.90;;;;;;5118244;27;20546;-85
2023/01/17 04:08:17;;;;;;;5.75;0.85;;;4.30;81.90;;;;;;5118337;27;20043;-86
2023/01/17 04:10:42;;;;;;;4.53;0.93;;;4.30;81.70;;;;;;5118244;27;20049;-85
2023/01/17 04:13:08;;;;;;;12.52;1.10;;;4.30;81.60;;;;;;5118427;27;20071;-86
2023/01/17 04:15:34;;;;;;;4.18;0.68;;;4.50;81.60;;;;;;5113687;28;20028;-85
2023/01/17 04:18:00;;;;;;;2.38;0.50;;;4.30;81.30;;;;;;5098900;27;20051;-85
2023/01/17 04:20:35;;;;;;;4.60;1.05;;;4.30;81.30;;;;;;5100984;27;20045;-85
2023/01/17 04:23:01;;;;;;;4.30;0.57;;;4.30;81.10;;;;;;5134919;27;20038;-86
2023/01/17 04:25:29;;;;;;;5.03;1.17;;;4.30;81.00;;;;;;5118093;27;20043;-85
2023/01/17 04:27:56;;;;;;;5.25;0.60;;;4.20;80.90;;;;;;5135113;27;20379;-80
2023/01/17 04:30:22;;;;;;;3.08;0.60;;;4.20;80.90;;;;;;5117652;27;20036;-79
2023/01/17 04:32:48;;;;;;;4.55;0.88;;;4.20;81.00;;;;;;5117682;27;20066;-79
2023/01/17 04:35:14;;;;;;;4.50;0.57;;;4.30;81.10;;;;;;5091050;27;20521;-79
2023/01/17 04:37:40;;;;;;;3.45;0.45;;;4.30;81.20;;;;;;5100701;27;20557;-78
2023/01/17 04:40:06;;;;;;;3.30;0.47;;;4.30;81.30;;;;;;5117194;27;20035;-78
2023/01/17 04:42:32;;;;;;;3.20;0.90;;;4.30;81.30;;;;;;5097522;27;20040;-78
2023/01/17 04:44:57;;;;;;;3.78;0.50;;;4.40;81.20;;;;;;5083895;28;20084;-78
2023/01/17 04:47:23;;;;;;;2.80;0.50;;;4.30;81.20;;;;;;5079961;28;20043;-78
2023/01/17 04:49:49;;;;;;;4.18;0.68;;;4.30;81.10;;;;;;5080192;28;20093;-84
2023/01/17 04:52:17;;;;;;;4.93;1.23;;;4.80;81.20;;;;;;5111648;27;20039;-84
2023/01/17 04:54:43;;;;;;;2.65;0.50;;;4.30;80.90;;;;;;5086753;28;20032;-85
2023/01/17 04:57:09;;;;;;;2.47;0.40;;;4.30;80.90;;;;;;5114127;28;20368;-85
2023/01/17 04:59:35;;;;;;;6.78;0.82;;;4.30;80.90;;;;;;5113891;28;20031;-85
2023/01/17 05:02:00;;;;;;;3.22;1.30;;;4.30;80.80;;;;;;5120113;27;20053;-85
2023/01/17 05:04:26;;;;;;;4.90;0.85;;;4.30;80.90;;;;;;5117152;27;20042;-84
2023/01/17 05:06:52;;;;;;;5.25;0.70;;;4.70;81.10;;;;;;5100069;27;20115;-85
2023/01/17 05:09:18;;;;;;;3.20;0.40;;;4.30;80.80;;;;;;5096862;28;20114;-85
2023/01/17 05:11:43;;;;;;;4.47;0.55;;;4.20;80.50;;;;;;5079902;28;20097;-85
2023/01/17 05:14:09;;;;;;;1.30;0.60;;;4.30;80.50;;;;;;5117922;27;20035;-79
2023/01/17 05:16:35;;;;;;;4.55;0.63;;;4.20;80.40;;;;;;5090418;28;20123;-79
2023/01/17 05:19:01;;;;;;;5.25;0.93;;;4.20;80.40;;;;;;5096486;28;20386;-79
2023/01/17 05:21:26;;;;;;;4.75;0.73;;;4.20;80.20;;;;;;5080510;27;20455;-85
2023/01/17 05:23:52;;;;;;;2.65;0.45;;;4.10;80.00;;;;;;5100146;27;20046;-85
2023/01/17 05:26:18;;;;;;;2.83;0.60;;;4.10;80.00;;;;;;5116748;27;20035;-85
2023/01/17 05:28:44;;;;;;;2.55;0.30;;;4.10;80.20;;;;;;5082844;27;20101;-85
2023/01/17 05:31:10;;;;;;;3.78;0.80;;;4.10;80.30;;;;;;5116663;27;20036;-85
2023/01/17 05:33:35;;;;;;;6.57;1.15;;;4.00;80.30;;;;;;5133794;27;20543;-85
2023/01/17 05:36:02;;;;;;;2.92;0.90;;;4.10;80.20;;;;;;5116273;27;20041;-85
2023/01/17 05:38:28;;;;;;;8.48;0.68;;;4.10;80.10;;;;;;5099348;27;20629;-85
2023/01/17 05:40:54;;;;;;;2.60;1.13;;;4.00;80.00;;;;;;5113170;27;20049;-85
2023/01/17 05:43:21;;;;;;;2.95;0.70;;;4.00;79.80;;;;;;5114643;27;20035;-85
2023/01/17 05:45:48;;;;;;;5.88;0.80;;;4.00;79.70;;;;;;5096113;28;20062;-85
2023/01/17 05:48:14;;;;;;;7.35;0.98;;;4.00;79.60;;;;;;5112673;28;20050;-84
2023/01/17 05:50:39;;;;;;;3.75;0.75;;;3.90;79.30;;;;;;5111873;28;20035;-84
2023/01/17 05:53:08;;;;;;;6.53;0.60;;;4.10;79.20;;;;;;5113047;28;20044;-84
2023/01/17 05:55:35;;;;;;;4.25;0.63;;;3.90;78.80;;;;;;5112985;28;20461;-84
2023/01/17 05:58:01;;;;;;;1.95;0.50;;;3.80;78.70;;;;;;5112823;28;20035;-84
2023/01/17 06:00:27;;;;;;;5.15;0.70;;;3.80;78.50;;;;;;5116297;27;20035;-86
2023/01/17 06:02:54;;;;;;;3.47;0.50;;;3.70;78.40;;;;;;5116030;27;20035;-84
2023/01/17 06:05:21;;;;;;;5.03;0.63;;;3.80;78.40;;;;;;5098782;27;20036;-84
2023/01/17 06:07:47;;;;;;;3.58;0.47;;;3.70;78.20;;;;;;5133020;27;20118;-84
2023/01/17 06:10:14;;;;;;;1.60;0.30;;;3.70;78.30;;;;;;5099055;27;20114;-84
2023/01/17 06:12:41;;;;;;;4.07;0.50;;;3.70;78.50;;;;;;5116178;27;20049;-84
2023/01/17 06:15:08;;;;;;;1.95;0.47;;;3.70;78.60;;;;;;5133112;27;20065;-84
2023/01/17 06:17:34;;;;;;;2.45;0.30;;;3.70;78.70;;;;;;5115632;27;20039;-84
2023/01/17 06:20:00;;;;;;;1.70;0.30;;;3.80;78.70;;;;;;5115473;27;20066;-84
2023/01/17 06:22:25;;;;;;;1.00;0.38;;;3.80;78.70;;;;;;5098618;28;20070;-84
2023/01/17 06:24:51;;;;;;;2.38;0.38;;;3.70;78.50;;;;;;5078609;28;20050;-84
2023/01/17 06:27:17;;;;;;;1.42;0.35;;;3.70;78.60;;;;;;5112597;28;20040;-84
2023/01/17 06:29:43;;;;;;;5.13;0.50;;;3.80;78.70;;;;;;5095617;28;20475;-83
2023/01/17 06:32:08;;;;;;;3.47;0.30;;;3.70;78.60;;;;;;5078250;28;20044;-83
2023/01/17 06:34:36;;;;;;;2.50;0.30;;;3.80;78.80;;;;;;5092271;28;20039;-84
2023/01/17 06:37:01;;;;;;;1.27;0.10;;;3.70;78.80;;;;;;5102054;28;20055;-84
2023/01/17 06:39:27;;;;;;;3.05;0.43;;;3.80;79.00;;;;;;5095343;28;20126;-84
2023/01/17 06:41:53;;;;;;;1.02;0.30;;;4.20;79.30;;;;;;5112294;28;20401;-84
2023/01/17 06:44:19;;;;;;;1.80;0.30;;;4.10;79.20;;;;;;5095306;28;20039;-84
2023/01/17 06:46:46;;;;;;;1.58;0.40;;;3.80;79.10;;;;;;5112508;28;20112;-84
2023/01/17 06:49:12;;;;;;;2.15;0.30;;;3.80;79.30;;;;;;5096310;28;20044;-84
2023/01/17 06:51:38;;;;;;;3.53;0.93;;;4.00;79.50;;;;;;5095671;28;20039;-85
2023/01/17 06:54:03;;;;;;;1.65;0.32;;;3.80;79.50;;;;;;5112470;28;20505;-84
2023/01/17 06:56:30;;;;;;;2.20;0.40;;;3.80;79.60;;;;;;5096119;28;20372;-84
2023/01/17 06:58:56;;;;;;;2.80;0.50;;;3.80;79.70;;;;;;5107895;28;20087;-84
2023/01/17 07:01:22;;;;;;;1.60;0.35;;;3.90;79.90;;;;;;5115527;27;20122;-84
2023/01/17 07:03:48;;;;;;;1.00;0.30;;;3.80;79.90;;;;;;5119803;27;20504;-83
2023/01/17 07:06:13;;;;;;;3.00;0.60;;;3.90;80.00;;;;;;5119269;27;20039;-84
2023/01/17 07:08:39;;;;;;;3.10;1.15;;;3.80;80.00;;;;;;5136154;27;20042;-84
2023/01/17 07:11:06;;;;;;;3.00;0.57;;;3.80;80.00;;;;;;5099145;28;20127;-84
2023/01/17 07:13:37;;;;;;;2.67;0.32;;;3.80;80.10;;;;;;5116067;28;20050;-83
2023/01/17 07:16:07;;;;;;;2.90;0.47;;;3.80;80.10;;;;;;5116252;28;20032;-84
2023/01/17 07:18:33;;;;;;;3.47;0.45;;;3.80;80.20;;;;;;5133397;27;20393;-83
2023/01/17 07:21:00;;;;;;;3.22;0.50;;;4.20;80.40;;;;;;5119021;27;20043;-82
2023/01/17 07:23:26;;;;;;;2.80;0.50;;;3.80;80.00;;;;;;5102295;27;20039;-83
2023/01/17 07:25:52;;;;;;;3.65;0.45;;;3.80;80.00;;;;;;5136297;27;20142;-83
2023/01/17 07:28:18;;;;;;;2.65;0.40;;;3.80;79.90;;;;;;5119161;27;20080;-83
2023/01/17 07:30:44;;;;;;;4.90;0.63;;;3.80;79.90;;;;;;5119071;27;20043;-83
2023/01/17 07:33:10;;;;;;;4.20;0.57;;;3.80;79.90;;;;;;5118786;27;20126;-83
2023/01/17 07:35:36;;;;;;;5.15;0.77;;;3.80;79.90;;;;;;5119160;27;20035;-83
2023/01/17 07:38:02;;;;;;;4.38;0.60;;;4.10;80.00;;;;;;5118878;27;20393;-83
2023/01/17 07:40:28;;;;;;;6.50;1.05;;;3.80;79.80;;;;;;5101999;27;20043;-83
2023/01/17 07:43:00;;;;;;;3.53;0.60;;;3.90;79.90;;;;;;5118880;27;20046;-83
2023/01/17 07:45:26;;;;;;;3.60;0.45;;;3.80;79.90;;;;;;5118154;27;20121;-83
2023/01/17 07:47:52;;;;;;;3.00;0.63;;;3.80;79.80;;;;;;5119034;27;20517;-83
2023/01/17 07:50:17;;;;;;;1.35;0.20;;;3.80;79.40;;;;;;5101832;27;20035;-83
2023/01/17 07:52:48;;;;;;;2.92;0.50;;;3.70;79.40;;;;;;5101572;27;20118;-83
2023/01/17 07:55:14;;;;;;;1.85;0.50;;;3.70;79.40;;;;;;5118850;27;20100;-84
2023/01/17 07:57:40;;;;;;;3.58;0.52;;;3.70;79.40;;;;;;5101559;27;20478;-83
2023/01/17 08:00:07;;;;;;;2.25;0.50;;;3.70;79.40;;;;;;5135987;27;20126;-83
2023/01/17 08:02:32;;;;;;;2.28;0.40;;;3.70;79.50;;;;;;5135782;27;20443;-84
2023/01/17 08:04:58;;;;;;;2.67;0.60;;;3.70;79.60;;;;;;5135512;27;20149;-83
2023/01/17 08:07:25;;;;;;;4.32;0.60;;;3.70;79.60;;;;;;5118396;27;20039;-83
2023/01/17 08:09:53;;;;;;;3.83;0.60;;;3.70;79.60;;;;;;5101661;27;20039;-83
2023/01/17 08:12:18;;;;;;;3.95;0.80;;;3.70;79.50;;;;;;5118198;27;20043;-83
2023/01/17 08:14:44;;;;;;;3.88;0.70;;;3.80;79.50;;;;;;5134522;27;20508;-83
2023/01/17 08:17:13;;;;;;;2.95;0.60;;;3.70;79.30;;;;;;5135541;27;20039;-83
2023/01/17 08:19:39;;;;;;;2.75;0.43;;;3.80;79.40;;;;;;5135313;27;20046;-83
2023/01/17 08:22:04;;;;;;;3.25;0.63;;;3.70;79.50;;;;;;5118300;27;20386;-83
2023/01/17 08:24:30;;;;;;;3.38;0.50;;;3.70;79.60;;;;;;5134981;27;20109;-83
2023/01/17 08:26:56;;;;;;;2.17;0.40;;;3.70;79.70;;;;;;5101119;27;20047;-83
2023/01/17 08:29:22;;;;;;;2.95;0.40;;;3.60;79.70;;;;;;5118018;27;20457;-83
2023/01/17 08:31:48;;;;;;;4.13;0.73;;;4.00;80.10;;;;;;5152277;27;20047;-83
2023/01/17 08:34:13;;;;;;;4.70;0.95;;;3.70;80.00;;;;;;5117958;27;20057;-83
2023/01/17 08:36:41;;;;;;;2.25;0.55;;;3.70;80.00;;;;;;5117544;27;20490;-83
2023/01/17 08:39:08;;;;;;;1.23;0.40;;;4.00;80.30;;;;;;5118228;27;20037;-83
2023/01/17 08:41:34;;;;;;;4.78;0.82;;;4.20;80.60;;;;;;5100803;27;20035;-83
2023/01/17 08:44:01;;;;;;;3.95;0.80;;;3.70;80.50;;;;;;5117948;27;20043;-83
2023/01/17 08:46:27;;;;;;;4.53;0.80;;;3.80;80.70;;;;;;5118036;27;20438;-83
2023/01/17 08:48:54;;;;;;;1.55;0.57;;;3.80;80.80;;;;;;5134719;27;20047;-83
2023/01/17 08:51:21;;;;;;;4.82;0.63;;;3.80;80.90;;;;;;5151843;27;20047;-83
2023/01/17 08:53:47;;;;;;;3.67;0.80;;;3.90;80.90;;;;;;5117559;27;20130;-83
2023/01/17 08:56:13;;;;;;;3.63;0.50;;;4.00;80.90;;;;;;5134931;27;20095;-83
2023/01/17 08:58:40;;;;;;;2.28;0.60;;;3.90;80.80;;;;;;5100231;27;20035;-83
2023/01/17 09:01:06;;;;;;;5.95;0.77;;;4.10;81.00;;;;;;5117529;27;20043;-83
2023/01/17 09:03:33;;;;;;;9.00;1.23;;;4.10;81.10;;;;;;5117067;27;20127;-83
2023/01/17 09:06:05;;;;;;;5.93;0.90;;;4.20;81.20;;;;;;5134353;27;20046;-80
2023/01/17 09:08:31;;;;;;;4.85;0.90;;;4.30;81.20;;;;;;5133923;27;20054;-79
2023/01/17 09:10:57;;;;;;;4.65;1.00;;;4.40;81.20;;;;;;5134285;27;20129;-80
2023/01/17 09:13:23;;;;;;;3.65;1.10;;;4.60;81.00;;;;;;5116852;27;20498;-79
2023/01/17 09:15:49;;;;;;;4.80;1.20;;;4.70;80.70;;;;;;5100037;27;20149;-80
2023/01/17 09:18:14;;;;;;;3.08;0.82;;;4.90;80.40;;;;;;5099855;27;20035;-80
2023/01/17 09:20:40;;;;;;;4.03;1.25;;;5.00;80.10;;;;;;5100041;27;20039;-80
2023/01/17 09:23:06;;;;;;;3.90;1.25;;;5.20;79.70;;;;;;5116695;27;20074;-79
2023/01/17 09:25:31;;;;;;;8.30;1.63;;;5.40;79.10;;;;;;5099765;27;20397;-80
2023/01/17 09:27:57;;;;;;;6.35;1.02;;;5.60;78.60;;;;;;5133951;27;20045;-80
2023/01/17 09:30:23;;;;;;;4.75;0.88;;;5.70;78.00;;;;;;5099784;27;20436;-80
2023/01/17 09:32:53;;;;;;;3.75;0.90;;;5.80;77.50;;;;;;5116466;27;20035;-80
2023/01/17 09:35:18;;;;;;;3.97;1.00;;;6.00;76.90;;;;;;5133759;27;20389;-80
2023/01/17 09:37:47;;;;;;;4.82;1.02;;;6.10;76.80;;;;;;5099311;27;20051;-80
2023/01/17 09:40:19;;;;;;;3.92;0.90;;;6.10;76.20;;;;;;5099978;27;20478;-80
2023/01/17 09:42:49;;;;;;;4.05;1.23;;;6.20;75.70;;;;;;5133538;27;20073;-79
2023/01/17 09:45:17;;;;;;;3.10;0.73;;;6.20;75.50;;;;;;5116705;27;20043;-79
2023/01/17 09:47:52;;;;;;;3.92;0.88;;;6.30;75.10;;;;;;5099634;27;20129;-79
2023/01/17 09:50:25;;;;;;;4.88;1.00;;;6.40;74.70;;;;;;5133404;27;20121;-79
2023/01/17 09:53:02;;;;;;;5.07;1.23;;;6.40;74.20;;;;;;5133587;27;20054;-79
2023/01/17 09:55:54;;;;;;;3.08;0.65;;;6.40;74.00;;;;;;5133705;27;20058;-79
2023/01/17 09:58:35;;;;;;;2.78;1.10;;;6.50;73.80;;;;;;5110538;27;20050;-80
2023/01/17 10:01:04;;;;;;;3.33;0.82;;;6.50;73.40;;;;;;5133124;27;20038;-80
2023/01/17 10:03:56;;;;;;;4.70;0.90;;;6.50;73.40;;;;;;5116399;27;20043;-80
2023/01/17 10:06:44;;;;;;;5.65;1.40;;;6.50;73.00;;;;;;5116103;27;20043;-80
2023/01/17 10:09:34;;;;;;;2.75;1.10;;;6.60;73.20;;;;;;5115598;27;20471;-80
2023/01/17 10:11:59;;;;;;;2.08;0.70;;;6.60;73.20;;;;;;5133034;27;20561;-80
2023/01/17 10:14:34;;;;;;;5.38;1.05;;;6.60;73.30;;;;;;5133152;27;20118;-80
2023/01/17 10:17:35;;;;;;;3.55;1.83;;;6.60;72.60;;;;;;5133343;27;20039;-80
2023/01/17 10:20:32;;;;;;;3.30;0.90;;;6.60;72.50;;;;;;5100051;27;20065;-80
2023/01/17 10:23:11;;;;;;;4.30;0.70;;;6.60;72.80;;;;;;5129843;27;20047;-80
2023/01/17 10:26:13;;;;;;;1.80;0.60;;;6.70;73.10;;;;;;5116099;28;20389;-80
2023/01/17 10:28:50;;;;;;;4.38;0.90;;;6.70;72.60;;;;;;5150467;27;20363;-80
2023/01/17 10:31:24;;;;;;;4.82;0.70;;;6.70;72.80;;;;;;5116081;27;20118;-81
2023/01/17 10:33:50;;;;;;;3.30;0.85;;;6.70;72.70;;;;;;5114592;28;20031;-81
2023/01/17 10:36:28;;;;;;;4.28;0.75;;;6.70;72.80;;;;;;5116182;27;20039;-81
2023/01/17 10:38:58;;;;;;;3.00;0.70;;;6.80;72.70;;;;;;5122321;27;20112;-81
2023/01/17 10:41:40;;;;;;;2.88;0.60;;;6.80;72.90;;;;;;5122575;27;20077;-81
2023/01/17 10:44:13;;;;;;;3.10;0.68;;;6.80;72.50;;;;;;5122465;27;20095;-81
2023/01/17 10:47:03;;;;;;;2.97;0.63;;;6.80;72.60;;;;;;5122450;27;20095;-81
2023/01/17 10:49:29;;;;;;;5.20;0.90;;;6.80;72.30;;;;;;5119229;28;20394;-80
2023/01/17 10:51:59;;;;;;;3.25;0.70;;;6.90;72.10;;;;;;5118935;28;20126;-80
2023/01/17 10:54:50;;;;;;;2.58;0.77;;;6.90;71.60;;;;;;5118904;28;20082;-81
2023/01/17 10:57:24;;;;;;;4.00;1.00;;;6.90;71.40;;;;;;5118970;28;20036;-81
2023/01/17 10:59:51;;;;;;;3.17;1.08;;;6.90;71.80;;;;;;5101981;28;20078;-81
2023/01/17 11:02:23;;;;;;;5.93;0.95;;;6.90;72.00;;;;;;5119180;28;20394;-81
2023/01/17 11:04:53;;;;;;;3.85;0.70;;;6.90;71.60;;;;;;5122034;27;20043;-81
2023/01/17 11:07:22;;;;;;;3.63;1.10;;;6.90;71.10;;;;;;5122466;27;20049;-81
2023/01/17 11:09:50;;;;;;;4.00;1.02;;;6.90;71.20;;;;;;5122005;27;20043;-80
2023/01/17 11:12:32;;;;;;;3.72;1.02;;;6.90;71.10;;;;;;5122095;27;20538;-80
2023/01/17 11:15:10;;;;;;;3.15;0.85;;;6.90;70.60;;;;;;5122230;27;20061;-80
2023/01/17 11:17:59;;;;;;;6.95;1.33;;;7.00;70.40;;;;;;5139366;27;20031;-81
2023/01/17 11:20:41;;;;;;;3.60;0.80;;;6.90;70.20;;;;;;5122666;27;20130;-80
2023/01/17 11:23:44;;;;;;;6.03;1.17;;;7.10;70.50;;;;;;5102142;28;20051;-80
2023/01/17 11:26:21;;;;;;;3.42;1.00;;;6.80;70.20;;;;;;5123123;27;20035;-81
2023/01/17 11:28:46;;;;;;;6.50;1.02;;;6.80;70.50;;;;;;5121439;27;20446;-80
2023/01/17 11:31:15;;;;;;;7.38;1.45;;;6.80;70.80;;;;;;5092264;28;20036;-80
2023/01/17 11:33:52;;;;;;;4.88;1.00;;;6.70;70.70;;;;;;5105867;27;20375;-80
2023/01/17 11:36:26;;;;;;;6.40;1.20;;;6.70;70.30;;;;;;5121426;27;20039;-81
2023/01/17 11:39:04;;;;;;;3.45;1.40;;;6.70;70.20;;;;;;5121136;27;20498;-82
2023/01/17 11:41:38;;;;;;;5.35;0.80;;;6.70;70.40;;;;;;5121724;27;20078;-82
2023/01/17 11:44:24;;;;;;;5.40;1.00;;;6.60;70.70;;;;;;5139028;27;20048;-83
2023/01/17 11:47:06;;;;;;;4.35;1.00;;;6.60;70.90;;;;;;5101680;28;20032;-82
2023/01/17 11:49:31;;;;;;;1.88;0.73;;;6.60;71.00;;;;;;5114525;28;20122;-82
2023/01/17 11:51:57;;;;;;;4.82;1.05;;;6.60;71.20;;;;;;5098112;28;20481;-83
2023/01/17 11:54:28;;;;;;;4.00;0.70;;;6.60;70.90;;;;;;5115921;28;20039;-82
2023/01/17 11:56:59;;;;;;;3.00;0.98;;;6.50;70.10;;;;;;5135548;27;20122;-83
2023/01/17 11:59:36;;;;;;;2.13;0.50;;;6.50;69.20;;;;;;5119168;27;20035;-82
2023/01/17 12:02:32;;;;;;;4.15;0.60;;;6.50;69.10;;;;;;5156016;27;20054;-82
2023/01/17 12:05:08;;;;;;;3.83;0.80;;;6.40;68.00;;;;;;5124989;27;20109;-83
2023/01/17 12:08:19;;;;;;;2.20;0.68;;;6.40;67.50;;;;;;5118285;27;20042;-83
2023/01/17 12:11:34;;;;;;;3.95;0.90;;;6.30;66.80;;;;;;5097828;27;20069;-83
2023/01/17 12:14:21;;;;;;;4.15;1.10;;;6.30;67.80;;;;;;5101428;27;20134;-83
2023/01/17 12:17:10;;;;;;;2.30;0.43;;;6.20;67.40;;;;;;5118252;27;20035;-83
2023/01/17 12:19:59;;;;;;;3.60;1.23;;;6.20;66.90;;;;;;5118273;27;20070;-84
2023/01/17 12:22:41;;;;;;;2.75;0.50;;;6.10;67.10;;;;;;5120911;27;20043;-81
2023/01/17 12:25:25;;;;;;;2.55;0.60;;;6.10;66.90;;;;;;5142522;27;20038;-81
2023/01/17 12:28:32;;;;;;;3.63;0.60;;;6.10;66.40;;;;;;5127074;27;20041;-81
2023/01/17 12:31:04;;;;;;;2.75;0.60;;;6.00;65.70;;;;;;5128915;27;20065;-81
2023/01/17 12:33:58;;;;;;;4.97;0.60;;;6.00;65.80;;;;;;5125748;27;20515;-81
2023/01/17 12:36:52;;;;;;;3.00;1.00;;;6.00;65.80;;;;;;5129561;27;20033;-81
2023/01/17 12:39:21;;;;;;;5.00;0.75;;;5.90;66.20;;;;;;5086919;28;20075;-81
2023/01/17 12:41:58;;;;;;;3.58;0.75;;;5.90;66.40;;;;;;5103897;28;20510;-82
2023/01/17 12:45:01;;;;;;;2.25;0.57;;;5.90;65.70;;;;;;5082576;28;20045;-82
2023/01/17 12:47:29;;;;;;;2.85;0.80;;;5.90;65.60;;;;;;5100787;28;20035;-81
2023/01/17 12:50:17;;;;;;;3.00;0.80;;;5.80;66.20;;;;;;5082312;28;20044;-85
2023/01/17 12:53:36;;;;;;;2.80;0.40;;;5.80;66.40;;;;;;5087883;28;20047;-83
2023/01/17 12:56:30;;;;;;;4.22;0.50;;;5.80;65.30;;;;;;5077422;28;20119;-82
2023/01/17 12:59:06;;;;;;;2.30;0.52;;;5.80;65.70;;;;;;5088760;28;20040;-82
2023/01/17 13:01:38;;;;;;;1.73;0.40;;;5.80;66.60;;;;;;5083847;28;20118;-82
2023/01/17 13:04:06;;;;;;;5.05;0.52;;;5.80;66.90;;;;;;5086322;28;20040;-82
2023/01/17 13:06:57;;;;;;;1.75;0.35;;;5.80;66.60;;;;;;5086895;28;20035;-82
2023/01/17 13:09:24;;;;;;;0.88;0.30;;;5.70;65.60;;;;;;5083341;28;20040;-82
2023/01/17 13:12:12;;;;;;;4.82;0.88;;;5.70;65.80;;;;;;5085078;28;20071;-82
2023/01/17 13:14:38;;;;;;;1.70;0.45;;;5.70;64.60;;;;;;5086172;28;20044;-82
2023/01/17 13:17:20;;;;;;;2.65;0.50;;;5.70;65.00;;;;;;5088618;28;20044;-82
2023/01/17 13:20:13;;;;;;;4.22;0.70;;;5.70;64.40;;;;;;5100848;28;20040;-83
2023/01/17 13:22:39;;;;;;;1.20;0.40;;;5.60;64.30;;;;;;5102136;28;20039;-82
2023/01/17 13:25:41;;;;;;;2.63;0.70;;;5.60;64.60;;;;;;5086288;28;20053;-83
2023/01/17 13:28:28;;;;;;;4.47;0.73;;;5.60;64.40;;;;;;5084219;28;20600;-83
2023/01/17 13:31:13;;;;;;;2.08;0.47;;;5.60;64.90;;;;;;5085060;28;20407;-82
2023/01/17 13:34:08;;;;;;;4.93;1.20;;;5.60;65.20;;;;;;5102754;28;20035;-83
2023/01/17 13:37:03;;;;;;;1.98;0.52;;;5.50;65.10;;;;;;5083194;28;20032;-82
2023/01/17 13:39:55;;;;;;;1.70;0.52;;;5.50;65.20;;;;;;5107908;27;20051;-83
2023/01/17 13:43:00;;;;;;;2.85;0.50;;;5.50;65.10;;;;;;5102945;27;20138;-82
2023/01/17 13:45:34;;;;;;;3.90;0.57;;;5.50;65.60;;;;;;5104384;27;20097;-82
2023/01/17 13:48:13;;;;;;;2.10;0.70;;;5.40;66.20;;;;;;5104550;27;20067;-82
2023/01/17 13:50:46;;;;;;;1.27;0.47;;;5.40;66.00;;;;;;5105550;27;20138;-82
2023/01/17 13:53:31;;;;;;;4.78;0.70;;;5.50;66.50;;;;;;5103904;27;20031;-82
2023/01/17 13:56:14;;;;;;;2.53;0.80;;;5.40;66.80;;;;;;5122576;27;20039;-82
2023/01/17 13:58:50;;;;;;;3.00;0.80;;;5.40;67.20;;;;;;5108705;27;20471;-83
2023/01/17 14:01:22;;;;;;;1.90;0.70;;;5.40;67.50;;;;;;5106866;27;20045;-82
2023/01/17 14:03:51;;;;;;;2.80;0.77;;;5.40;67.90;;;;;;5102417;27;20088;-85
2023/01/17 14:06:36;;;;;;;3.63;1.20;;;5.40;68.40;;;;;;5101017;27;20451;-84
2023/01/17 14:09:11;;;;;;;4.32;1.10;;;5.40;68.50;;;;;;5119215;27;20035;-84
2023/01/17 14:11:52;;;;;;;4.43;1.10;;;5.40;68.50;;;;;;5105571;28;20070;-83
2023/01/17 14:14:47;;;;;;;2.15;1.10;;;5.40;68.60;;;;;;5115930;27;20115;-83
2023/01/17 14:17:19;;;;;;;3.38;1.10;;;5.40;68.80;;;;;;5099887;28;20039;-84
2023/01/17 14:19:48;;;;;;;3.50;1.20;;;5.30;68.90;;;;;;5099267;27;20449;-84
2023/01/17 14:22:19;;;;;;;2.08;1.05;;;5.40;69.00;;;;;;5098654;27;20046;-83
2023/01/17 14:25:10;;;;;;;2.97;1.00;;;5.30;68.80;;;;;;5098270;28;20046;-83
2023/01/17 14:28:29;;;;;;;3.15;1.08;;;5.30;68.80;;;;;;5121193;27;20448;-85
2023/01/17 14:30:57;;;;;;;2.63;0.80;;;5.30;69.10;;;;;;5076053;28;20032;-83
2023/01/17 14:33:32;;;;;;;4.40;1.10;;;5.30;69.50;;;;;;5111896;27;20494;-84
2023/01/17 14:36:03;;;;;;;2.03;1.00;;;5.30;69.40;;;;;;5097839;28;20603;-84
2023/01/17 14:38:31;;;;;;;3.35;0.88;;;5.20;69.20;;;;;;5115140;27;20054;-83
2023/01/17 14:41:06;;;;;;;4.28;0.93;;;5.20;69.40;;;;;;5140236;27;20047;-84
2023/01/17 14:43:34;;;;;;;5.63;1.65;;;5.20;68.80;;;;;;5095609;28;20399;-82
2023/01/17 14:46:21;;;;;;;2.55;1.00;;;5.20;68.80;;;;;;5103767;28;20070;-84